Time;durP1;ratioP1;P1;durP2;ratioP2;P2;SDS_P1;SDS_P2;PMS_P1;PMS_P2;Temp;Humidity;BMP_temperature;BMP_pressure;BME280_temperature;BME280_humidity;BME280_pressure;Samples;Min_cycle;Max_cycle;Signal;HPM_P1;HPM_P2
2021/11/08 00:00:32;;;;;;;;;34.25;29.50;;;;;10.87;62.13;102015.31;5015625;28;45266;-85
2021/11/08 00:03:03;;;;;;;;;37.50;29.50;;;;;10.89;62.18;102031.84;4997681;28;45260;-90
2021/11/08 00:05:29;;;;;;;;;32.00;26.50;;;;;10.85;62.14;102025.59;5017643;28;45640;-88
2021/11/08 00:08:01;;;;;;;;;34.25;29.75;;;;;10.83;62.42;102028.09;5020750;28;46624;-88
2021/11/08 00:10:30;;;;;;;;;32.50;29.75;;;;;10.80;62.68;102006.25;5019370;28;45435;-87
2021/11/08 00:12:58;;;;;;;;;34.00;28.75;;;;;10.74;62.23;102001.59;5004087;28;45696;-88
2021/11/08 00:15:36;;;;;;;;;35.00;30.50;;;;;10.74;62.35;102005.88;5020508;28;45462;-87
2021/11/08 00:20:48;;;;;;;;;35.50;30.50;;;;;10.69;62.63;101993.50;5001129;28;45325;-88
2021/11/08 00:23:14;;;;;;;;;29.25;27.25;;;;;10.67;62.75;102007.16;4992675;28;45477;-89
2021/11/08 00:25:42;;;;;;;;;41.25;33.25;;;;;10.69;62.54;102016.81;5018702;28;45226;-88
2021/11/08 00:28:10;;;;;;;;;35.50;26.50;;;;;10.66;62.67;102010.56;5018070;28;46216;-88
2021/11/08 00:30:37;;;;;;;;;29.75;27.75;;;;;10.62;62.55;102008.59;5000335;28;45927;-87
2021/11/08 00:33:04;;;;;;;;;38.25;31.00;;;;;10.64;62.88;102019.91;5017779;28;45449;-88
2021/11/08 00:35:30;;;;;;;;;32.50;23.75;;;;;10.56;62.90;102014.28;5002155;28;45374;-89
2021/11/08 00:37:56;;;;;;;;;31.50;29.25;;;;;10.54;63.13;102010.69;5017783;28;45526;-88
2021/11/08 00:40:22;;;;;;;;;37.25;30.75;;;;;10.57;63.10;102009.97;5018187;28;45211;-87
2021/11/08 00:42:48;;;;;;;;;46.50;32.00;;;;;10.55;63.07;102014.16;5017708;28;45456;-87
2021/11/08 00:45:13;;;;;;;;;31.75;29.25;;;;;10.54;62.99;102015.84;5019119;28;45632;-87
2021/11/08 00:47:39;;;;;;;;;33.00;28.75;;;;;10.50;63.19;102009.59;5019537;28;45477;-87
2021/11/08 00:50:07;;;;;;;;;31.00;28.00;;;;;10.46;63.37;101994.66;5018456;28;45336;-87
2021/11/08 00:52:35;;;;;;;;;35.50;28.75;;;;;10.43;63.25;101993.56;4998301;28;45350;-87
2021/11/08 00:55:01;;;;;;;;;30.50;28.00;;;;;10.46;63.43;102019.66;5017708;28;45622;-86
2021/11/08 00:57:32;;;;;;;;;27.00;26.50;;;;;10.42;63.20;102008.19;5018028;28;46354;-88
2021/11/08 00:59:59;;;;;;;;;31.00;28.00;;;;;10.39;63.20;102010.59;5018200;28;45376;-87
2021/11/08 01:02:26;;;;;;;;;32.25;27.75;;;;;10.41;63.57;102011.59;5017936;28;46085;-85
2021/11/08 01:04:54;;;;;;;;;28.00;28.00;;;;;10.40;63.45;102030.50;5017760;28;45382;-87
2021/11/08 01:07:20;;;;;;;;;38.75;32.75;;;;;10.31;63.45;102022.13;4999739;28;48030;-85
2021/11/08 01:09:46;;;;;;;;;32.25;26.00;;;;;10.29;63.47;102023.69;5016918;28;45982;-86
2021/11/08 01:12:13;;;;;;;;;26.75;26.00;;;;;10.30;63.47;102023.78;5017812;28;45363;-86
2021/11/08 01:14:39;;;;;;;;;27.50;26.00;;;;;10.29;63.59;102029.75;5018463;28;45684;-86
2021/11/08 01:17:05;;;;;;;;;27.25;22.00;;;;;10.27;63.84;102030.47;5016952;28;45624;-87
2021/11/08 01:19:33;;;;;;;;;35.25;29.75;;;;;10.20;63.78;102021.38;5018715;28;45401;-86
2021/11/08 01:22:08;;;;;;;;;30.50;24.00;;;;;10.21;63.73;102018.88;5017818;28;45416;-86
2021/11/08 01:24:40;;;;;;;;;27.00;25.00;;;;;10.16;64.31;102012.53;5018043;28;45666;-86
2021/11/08 01:27:06;;;;;;;;;31.75;28.50;;;;;10.18;64.35;102016.13;5017788;28;45322;-86
2021/11/08 01:29:33;;;;;;;;;31.50;27.25;;;;;10.14;63.76;102016.72;5017260;28;45713;-86
2021/11/08 01:32:01;;;;;;;;;31.75;26.25;;;;;10.05;64.05;102005.75;4995972;28;45474;-87
2021/11/08 01:34:30;;;;;;;;;35.00;26.00;;;;;10.04;64.42;102006.53;4998199;28;45455;-85
2021/11/08 01:37:00;;;;;;;;;32.50;26.50;;;;;10.01;64.40;102007.25;5005470;28;45410;-86
2021/11/08 01:39:35;;;;;;;;;23.00;21.75;;;;;9.99;64.16;102003.66;4998895;28;45528;-86
2021/11/08 01:42:05;;;;;;;;;30.50;26.00;;;;;9.98;64.19;102008.75;5016850;28;45966;-85
2021/11/08 01:44:31;;;;;;;;;23.25;21.75;;;;;9.99;64.36;102008.81;5017567;28;45306;-86
2021/11/08 01:46:59;;;;;;;;;29.50;26.75;;;;;9.96;64.42;102002.56;5016236;28;46217;-85
2021/11/08 01:49:25;;;;;;;;;26.00;20.50;;;;;9.93;64.53;102002.34;5017272;28;45925;-85
2021/11/08 01:51:52;;;;;;;;;28.00;23.75;;;;;9.94;64.79;101998.97;5000760;28;45421;-86
2021/11/08 01:54:18;;;;;;;;;31.25;25.25;;;;;9.98;64.64;102003.56;5016372;28;45567;-85
2021/11/08 01:56:46;;;;;;;;;20.25;17.00;;;;;9.95;64.41;102006.81;5016963;28;45480;-86
2021/11/08 01:59:13;;;;;;;;;33.50;27.00;;;;;9.90;64.44;102003.03;5016714;28;45378;-86
2021/11/08 02:01:39;;;;;;;;;30.00;24.00;;;;;9.91;64.20;101997.09;5017475;28;45680;-85
2021/11/08 02:04:05;;;;;;;;;26.75;22.25;;;;;9.85;64.59;101992.41;4998225;28;46864;-84
2021/11/08 02:06:31;;;;;;;;;24.25;19.25;;;;;9.83;64.56;101983.63;5016754;28;46192;-85
2021/11/08 02:08:57;;;;;;;;;20.50;19.75;;;;;9.89;64.75;101986.63;4997774;28;45593;-85
2021/11/08 02:11:23;;;;;;;;;24.00;20.75;;;;;9.86;64.33;101972.59;4998816;28;45435;-86
2021/11/08 02:13:51;;;;;;;;;25.00;23.00;;;;;9.92;64.19;101988.53;5016793;28;45566;-86
2021/11/08 02:16:17;;;;;;;;;23.75;21.25;;;;;9.87;64.37;101984.72;5015751;28;45518;-86
2021/11/08 02:18:44;;;;;;;;;23.00;22.25;;;;;9.92;64.51;101998.88;5017368;28;45833;-85
2021/11/08 02:21:10;;;;;;;;;20.25;17.25;;;;;9.88;64.56;101999.47;5019033;28;45411;-85
2021/11/08 02:23:38;;;;;;;;;27.25;20.00;;;;;9.89;64.74;101993.50;5017837;28;45488;-85
2021/11/08 02:26:07;;;;;;;;;27.25;22.50;;;;;9.80;64.79;101980.84;5017333;28;46337;-84
2021/11/08 02:28:33;;;;;;;;;25.25;19.75;;;;;9.78;65.07;101986.69;5016610;28;45261;-85
2021/11/08 02:30:59;;;;;;;;;21.25;19.25;;;;;9.80;65.05;101980.84;4998922;28;45345;-85
2021/11/08 02:33:26;;;;;;;;;20.50;19.00;;;;;9.82;64.70;101984.41;5018326;28;45458;-85
2021/11/08 02:35:54;;;;;;;;;24.50;18.75;;;;;9.73;65.19;101971.75;5017583;28;46760;-85
2021/11/08 02:38:27;;;;;;;;;16.75;16.50;;;;;9.78;65.00;101984.13;5017928;28;45839;-85
2021/11/08 02:40:56;;;;;;;;;24.25;19.00;;;;;9.74;65.12;101981.31;4994938;28;45439;-86
2021/11/08 02:43:24;;;;;;;;;19.25;19.25;;;;;9.72;65.74;101979.44;5014876;28;45265;-86
2021/11/08 02:46:00;;;;;;;;;23.75;20.25;;;;;9.74;65.29;101981.31;5016700;28;46482;-86
2021/11/08 02:48:26;;;;;;;;;24.25;19.75;;;;;9.65;65.71;101972.94;5016761;28;45477;-87
2021/11/08 02:50:56;;;;;;;;;24.00;18.00;;;;;9.66;65.72;101991.97;5000131;28;45476;-85
2021/11/08 02:53:24;;;;;;;;;19.50;19.50;;;;;9.64;65.60;101990.94;5018271;28;45215;-86
2021/11/08 02:55:51;;;;;;;;;17.50;13.50;;;;;9.63;65.65;101991.75;5020440;28;45336;-86
2021/11/08 02:58:19;;;;;;;;;17.00;15.50;;;;;9.57;66.01;101987.94;5018806;28;45874;-86
2021/11/08 03:00:45;;;;;;;;;16.75;13.50;;;;;9.56;65.86;101988.72;5022215;28;45375;-87
2021/11/08 03:03:11;;;;;;;;;16.50;14.00;;;;;9.58;65.97;102000.06;5000568;28;45382;-86
2021/11/08 03:05:37;;;;;;;;;18.00;17.00;;;;;9.55;66.25;101991.22;5009401;28;46271;-86
2021/11/08 03:08:05;;;;;;;;;16.50;15.00;;;;;9.54;65.89;101987.75;4997572;28;45503;-87
2021/11/08 03:10:35;;;;;;;;;20.50;16.25;;;;;9.59;65.75;102004.47;5016016;28;45528;-86
2021/11/08 03:13:10;;;;;;;;;22.00;19.50;;;;;9.57;65.88;102006.03;5016557;28;45305;-86
2021/11/08 03:15:52;;;;;;;;;21.75;17.75;;;;;9.57;66.03;101998.28;5016818;28;46600;-86
2021/11/08 03:18:28;;;;;;;;;21.25;19.75;;;;;9.66;65.35;102008.34;4998434;28;45807;-86
2021/11/08 03:20:54;;;;;;;;;22.50;19.25;;;;;9.65;65.50;102009.16;4997573;28;45326;-86
2021/11/08 03:23:21;;;;;;;;;19.00;18.75;;;;;9.70;65.59;102010.38;5015025;28;45419;-86
2021/11/08 03:26:00;;;;;;;;;18.75;14.50;;;;;9.63;65.14;101991.75;5015280;28;46157;-86
2021/11/08 03:28:26;;;;;;;;;20.25;16.25;;;;;9.64;65.16;101994.41;5016785;28;45981;-86
2021/11/08 03:30:55;;;;;;;;;21.75;20.00;;;;;9.68;64.99;102013.63;4997632;28;45470;-85
2021/11/08 03:33:22;;;;;;;;;20.50;15.00;;;;;9.59;64.76;102001.00;5015888;28;45621;-86
2021/11/08 03:35:48;;;;;;;;;20.25;19.00;;;;;9.58;65.29;102010.41;5016411;28;46268;-86
2021/11/08 03:38:15;;;;;;;;;24.25;19.25;;;;;9.55;65.43;101998.97;5017165;28;45258;-86
2021/11/08 03:40:44;;;;;;;;;22.75;17.00;;;;;9.60;65.16;102005.38;5015590;28;45903;-86
2021/11/08 03:43:16;;;;;;;;;25.50;21.00;;;;;9.56;65.27;102012.00;4996711;28;45583;-86
2021/11/08 03:45:42;;;;;;;;;18.00;16.00;;;;;9.51;65.49;102004.72;5013767;28;45670;-86
2021/11/08 03:48:10;;;;;;;;;25.25;20.25;;;;;9.45;65.33;102013.84;5018807;28;45832;-86
2021/11/08 03:50:37;;;;;;;;;20.50;19.00;;;;;9.38;65.15;102006.47;5019098;28;45960;-85
2021/11/08 03:53:03;;;;;;;;;22.00;21.00;;;;;9.33;65.32;102000.09;5017095;28;45487;-86
2021/11/08 03:55:29;;;;;;;;;24.00;21.50;;;;;9.34;65.70;102009.63;5017826;28;45479;-85
2021/11/08 03:57:54;;;;;;;;;25.00;20.25;;;;;9.32;65.29;102007.75;5018077;28;45447;-85
2021/11/08 04:00:23;;;;;;;;;21.50;20.25;;;;;9.28;65.46;101992.03;4999316;28;45465;-86
2021/11/08 04:02:51;;;;;;;;;22.50;19.75;;;;;9.27;65.74;101999.69;5019500;28;45733;-84
2021/11/08 04:05:19;;;;;;;;;26.50;20.25;;;;;9.25;65.50;101988.31;5018934;28;45539;-85
2021/11/08 04:07:45;;;;;;;;;23.50;18.25;;;;;9.24;65.70;101995.16;5019456;28;45372;-84
2021/11/08 04:10:13;;;;;;;;;21.50;18.75;;;;;9.18;65.73;101984.41;5020576;28;45266;-85
2021/11/08 04:12:40;;;;;;;;;21.75;18.50;;;;;9.17;65.62;101985.22;5018193;28;45205;-85
2021/11/08 04:15:09;;;;;;;;;22.00;19.50;;;;;9.20;65.74;101985.44;5018409;28;46139;-85
2021/11/08 04:17:41;;;;;;;;;22.00;18.50;;;;;9.22;65.73;101986.44;5018349;28;46751;-85
2021/11/08 04:20:07;;;;;;;;;19.75;15.50;;;;;9.19;65.70;101990.47;5018282;28;45294;-85
2021/11/08 04:22:33;;;;;;;;;17.00;15.00;;;;;9.23;65.93;101997.66;5018561;28;45242;-85
2021/11/08 04:24:59;;;;;;;;;18.75;16.25;;;;;9.28;65.89;101998.88;5017594;28;45952;-84
2021/11/08 04:27:24;;;;;;;;;19.50;16.00;;;;;9.30;65.54;101997.28;5017295;28;45613;-85
2021/11/08 04:29:50;;;;;;;;;22.00;18.50;;;;;9.31;65.64;101995.59;5017977;28;45412;-85
2021/11/08 04:32:16;;;;;;;;;18.50;17.25;;;;;9.30;65.71;102005.03;5019406;28;45522;-85
2021/11/08 04:34:48;;;;;;;;;17.75;14.75;;;;;9.32;65.46;102007.75;5018312;28;45519;-84
2021/11/08 04:40:17;;;;;;;;;18.50;16.50;;;;;9.38;65.67;102018.50;5017856;28;45526;-85
2021/11/08 04:51:31;;;;;;;;;17.50;16.00;;;;;9.39;65.25;102013.44;4983287;28;45468;-85
2021/11/08 05:31:47;;;;;;;;;21.75;20.25;;;;;9.43;64.88;102011.97;5017748;28;45451;-85
2021/11/08 05:34:14;;;;;;;;;22.50;20.25;;;;;9.40;64.95;102009.16;5001487;28;45487;-84
2021/11/08 05:36:41;;;;;;;;;26.50;21.00;;;;;9.43;64.96;102022.31;5023816;28;45230;-85
2021/11/08 05:39:08;;;;;;;;;21.00;19.00;;;;;9.42;64.93;102023.97;5000717;28;46940;-87
2021/11/08 05:41:35;;;;;;;;;21.75;20.00;;;;;9.37;64.98;102016.69;5017405;28;45258;-84
2021/11/08 05:44:03;;;;;;;;;21.50;18.25;;;;;9.42;64.94;102026.56;5016620;28;45273;-83
2021/11/08 05:46:29;;;;;;;;;22.50;19.00;;;;;9.41;65.29;102031.63;4997969;28;45401;-87
2021/11/08 05:48:55;;;;;;;;;18.50;15.75;;;;;9.40;65.00;102017.81;4997905;28;46355;-85
2021/11/08 05:51:21;;;;;;;;;19.00;15.25;;;;;9.33;65.32;102023.34;5015768;28;45302;-84
2021/11/08 05:53:47;;;;;;;;;22.25;19.75;;;;;9.35;65.48;102032.13;5017158;28;45314;-84
2021/11/08 05:56:26;;;;;;;;;23.75;19.50;;;;;9.31;65.31;102021.47;4999502;28;45571;-84
2021/11/08 06:48:46;;;;;;;;;21.50;17.00;;;;;9.07;66.37;102087.00;5004495;28;45409;-84
2021/11/08 06:50:48;;;;;;;;;22.00;19.50;;;;;9.04;66.49;102086.78;5019611;28;45582;-84
2021/11/08 06:53:18;;;;;;;;;27.50;22.75;;;;;9.06;66.24;102082.66;5000634;28;47872;-88
2021/11/08 06:55:48;;;;;;;;;25.00;21.25;;;;;9.08;66.35;102085.31;5001544;28;45886;-81
2021/11/08 06:58:17;;;;;;;;;23.25;18.50;;;;;9.10;66.15;102092.38;5020539;28;45479;-84
2021/11/08 07:00:45;;;;;;;;;15.00;12.50;;;;;9.10;65.96;102092.38;5018475;28;45167;-89
2021/11/08 07:03:12;;;;;;;;;23.75;21.00;;;;;9.09;66.10;102088.00;5019110;28;45527;-87
2021/11/08 07:05:38;;;;;;;;;27.00;21.00;;;;;9.18;65.91;102105.88;4999312;28;46219;-86
2021/11/08 07:08:04;;;;;;;;;26.50;21.25;;;;;9.19;65.86;102096.41;5017884;28;45412;-85
2021/11/08 07:10:30;;;;;;;;;24.75;20.50;;;;;9.20;66.08;102091.38;4995853;28;45523;-85
2021/11/08 07:12:56;;;;;;;;;25.75;20.00;;;;;9.21;65.78;102097.44;4971703;28;45801;-89
2021/11/08 07:15:23;;;;;;;;;25.75;20.50;;;;;9.20;66.14;102109.47;5016621;28;45431;-84
2021/11/08 07:17:50;;;;;;;;;25.25;22.50;;;;;9.19;66.00;102112.84;5019381;28;45237;-85
2021/11/08 07:20:17;;;;;;;;;27.25;21.75;;;;;9.21;66.00;102105.19;5022101;28;45464;-81
2021/11/08 07:22:44;;;;;;;;;26.75;21.75;;;;;9.23;65.73;102107.06;5020203;28;46306;-82
2021/11/08 07:25:10;;;;;;;;;26.75;23.00;;;;;9.23;65.95;102101.03;5005431;28;45463;-82
2021/11/08 07:27:36;;;;;;;;;19.75;18.75;;;;;9.25;65.60;102102.91;5002753;28;45256;-85
2021/11/08 07:30:02;;;;;;;;;24.00;22.00;;;;;9.30;65.75;102111.00;5007332;28;45217;-83
2021/11/08 07:32:28;;;;;;;;;28.50;20.25;;;;;9.34;65.60;102115.59;5022768;28;45673;-83
2021/11/08 07:34:55;;;;;;;;;23.25;19.75;;;;;9.37;66.13;102114.91;5003537;28;45257;-86
2021/11/08 07:37:22;;;;;;;;;26.75;23.75;;;;;9.34;66.01;102118.19;5021668;28;45522;-85
2021/11/08 07:39:48;;;;;;;;;29.75;19.00;;;;;9.39;65.97;102129.75;5002421;28;45420;-88
2021/11/08 07:42:14;;;;;;;;;27.50;23.00;;;;;9.46;65.46;102128.47;5020353;28;45464;-82
2021/11/08 07:44:40;;;;;;;;;26.75;22.50;;;;;9.48;65.58;102123.44;5019085;28;45294;-81
2021/11/08 07:47:06;;;;;;;;;29.00;25.00;;;;;9.51;65.49;102132.31;5019894;28;45463;-87
2021/11/08 07:49:32;;;;;;;;;27.25;22.75;;;;;9.54;65.33;102131.63;5022599;28;45210;-85
2021/11/08 07:51:58;;;;;;;;;31.50;26.75;;;;;9.53;65.53;102132.41;5021075;28;45318;-84
2021/11/08 07:54:24;;;;;;;;;24.50;22.25;;;;;9.60;65.11;102135.53;5019308;28;45258;-84
2021/11/08 07:56:50;;;;;;;;;25.75;22.75;;;;;9.64;65.08;102134.06;5001765;28;45413;-85
2021/11/08 07:59:17;;;;;;;;;22.00;21.00;;;;;9.67;65.11;102136.88;5020568;28;45609;-83
2021/11/08 08:01:44;;;;;;;;;22.75;21.25;;;;;9.67;65.09;102128.19;5020506;28;45539;-88
2021/11/08 08:04:10;;;;;;;;;52.50;42.00;;;;;9.69;65.30;102131.78;5018303;28;45392;-86
2021/11/08 08:06:36;;;;;;;;;54.75;45.75;;;;;9.72;65.01;102122.56;5020798;28;45400;-87
2021/11/08 08:09:03;;;;;;;;;36.75;33.00;;;;;9.75;64.83;102127.06;5023908;28;45644;-85
2021/11/08 08:11:29;;;;;;;;;37.00;32.50;;;;;9.79;64.96;102135.94;5004438;28;47335;-86
2021/11/08 08:13:55;;;;;;;;;49.75;42.25;;;;;9.78;64.97;102136.72;5002060;28;45411;-88
2021/11/08 08:16:22;;;;;;;;;34.00;29.75;;;;;9.85;64.80;102138.91;5001820;28;45884;-89
2021/11/08 08:18:49;;;;;;;;;28.75;26.75;;;;;9.78;64.63;102128.94;5019415;28;45472;-88
2021/11/08 08:21:17;;;;;;;;;29.25;24.00;;;;;9.76;64.82;102134.91;5019554;28;45294;-86
2021/11/08 08:23:43;;;;;;;;;34.50;26.75;;;;;9.90;64.94;102153.97;5001595;28;45284;-88
2021/11/08 08:26:11;;;;;;;;;25.75;23.75;;;;;9.90;64.74;102148.78;5001201;28;45186;-88
2021/11/08 08:28:38;;;;;;;;;29.25;26.00;;;;;9.93;64.50;102144.63;5018852;28;45575;-86
2021/11/08 08:31:04;;;;;;;;;31.00;26.00;;;;;9.89;64.44;102140.94;5004685;28;46889;-87
2021/11/08 08:33:31;;;;;;;;;24.00;21.75;;;;;9.97;64.26;102152.72;5022787;28;45355;-87
2021/11/08 08:35:58;;;;;;;;;21.75;20.50;;;;;10.00;64.82;102158.09;5003828;28;45286;-88
2021/11/08 08:38:25;;;;;;;;;25.75;21.75;;;;;10.02;64.11;102145.25;5002478;28;45578;-88
2021/11/08 08:40:52;;;;;;;;;29.00;22.00;;;;;9.99;64.34;102145.06;5001446;28;47836;-90
2021/11/08 08:43:19;;;;;;;;;24.50;22.50;;;;;10.02;64.28;102141.00;5003228;28;45959;-90
2021/11/08 08:45:49;;;;;;;;;29.00;27.25;;;;;10.10;64.38;102150.97;5007138;28;45341;-90
2021/11/08 08:48:15;;;;;;;;;30.50;26.25;;;;;10.10;64.47;102156.16;5011640;28;45362;-89
2021/11/08 08:50:43;;;;;;;;;26.75;23.50;;;;;10.11;64.51;102157.94;5010404;28;47012;-88
2021/11/08 08:53:09;;;;;;;;;27.25;25.25;;;;;10.10;64.41;102153.56;5006302;28;45901;-88
2021/11/08 08:55:41;;;;;;;;;33.25;28.00;;;;;10.17;64.65;102160.94;5022981;28;45242;-88
2021/11/08 08:58:10;;;;;;;;;29.75;26.50;;;;;10.16;63.93;102156.53;5004816;28;45351;-86
2021/11/08 09:00:38;;;;;;;;;28.75;23.75;;;;;10.17;64.36;102161.84;5001679;28;48099;-88
2021/11/08 09:03:04;;;;;;;;;29.50;26.00;;;;;10.19;64.65;102162.84;5003086;28;45742;-88
2021/11/08 09:05:30;;;;;;;;;32.50;26.75;;;;;10.20;64.28;102172.38;5022591;28;45421;-90
2021/11/08 09:07:56;;;;;;;;;26.25;24.25;;;;;10.14;64.37;102164.22;5004538;28;45592;-86
2021/11/08 09:10:24;;;;;;;;;27.25;25.50;;;;;10.16;64.31;102161.72;5004316;28;47092;-86
2021/11/08 09:12:52;;;;;;;;;29.50;28.25;;;;;10.18;64.32;102170.50;5002133;28;45440;-88
2021/11/08 09:15:18;;;;;;;;;31.00;28.50;;;;;10.12;64.31;102149.38;5002449;28;45348;-87
2021/11/08 09:17:44;;;;;;;;;35.00;28.50;;;;;10.11;64.48;102158.81;5001766;28;45514;-87
2021/11/08 09:20:11;;;;;;;;;27.75;24.50;;;;;10.11;64.30;102158.81;5001490;28;46731;-89
2021/11/08 09:22:42;;;;;;;;;28.50;23.25;;;;;10.07;64.34;102156.84;5002300;28;45396;-88
2021/11/08 09:25:08;;;;;;;;;28.50;24.00;;;;;10.04;64.39;102159.22;5005907;28;45404;-87
2021/11/08 09:27:34;;;;;;;;;27.00;26.50;;;;;10.06;64.54;102173.16;5004788;28;45304;-87
2021/11/08 09:30:00;;;;;;;;;22.75;20.00;;;;;10.02;64.70;102153.03;5003463;28;46842;-87
2021/11/08 09:32:26;;;;;;;;;28.00;23.75;;;;;10.08;64.76;102174.16;5002104;28;45348;-89
2021/11/08 09:34:52;;;;;;;;;22.00;21.50;;;;;10.10;64.91;102163.91;5017948;28;45487;-86
2021/11/08 09:37:18;;;;;;;;;27.50;24.25;;;;;10.06;64.82;102155.91;5000208;28;45514;-87
2021/11/08 09:39:47;;;;;;;;;23.00;20.50;;;;;10.10;64.87;102161.31;5017982;28;46289;-87
2021/11/08 09:42:15;;;;;;;;;31.00;26.75;;;;;10.12;64.97;102158.03;5018045;28;45263;-86
2021/11/08 09:44:42;;;;;;;;;32.75;26.00;;;;;10.23;64.92;102172.59;5018550;28;45440;-84
2021/11/08 09:47:08;;;;;;;;;27.00;23.25;;;;;10.24;64.72;102168.34;5019217;28;45335;-87
2021/11/08 09:49:35;;;;;;;;;29.75;25.25;;;;;10.31;64.80;102164.47;5002000;28;47733;-87
2021/11/08 09:52:01;;;;;;;;;25.50;25.00;;;;;10.34;64.65;102160.41;5017275;28;45810;-85
2021/11/08 09:54:28;;;;;;;;;27.00;25.00;;;;;10.40;64.32;102156.44;5000003;28;45420;-87
2021/11/08 09:56:58;;;;;;;;;33.75;28.00;;;;;10.43;64.64;102148.91;5017632;28;45522;-85
2021/11/08 09:59:26;;;;;;;;;28.25;23.50;;;;;10.50;64.19;102154.59;5017225;28;46309;-85
2021/11/08 10:01:53;;;;;;;;;32.00;24.00;;;;;10.58;64.50;102154.19;5017000;28;45453;-86
2021/11/08 10:04:19;;;;;;;;;24.50;22.25;;;;;10.64;64.15;102152.00;5000507;28;45345;-84
2021/11/08 10:06:47;;;;;;;;;23.75;22.75;;;;;10.72;64.27;102153.44;5018220;28;45310;-84
2021/11/08 10:09:19;;;;;;;;;29.00;26.25;;;;;10.72;64.22;102137.88;5021380;28;46377;-88
2021/11/08 10:11:47;;;;;;;;;26.25;24.25;;;;;10.83;63.77;102155.03;5019641;28;45556;-87
2021/11/08 10:14:14;;;;;;;;;26.25;23.00;;;;;10.86;63.67;102154.34;5018519;28;45406;-87
2021/11/08 10:16:42;;;;;;;;;25.50;22.50;;;;;10.86;63.79;102138.78;5017759;28;45520;-86
2021/11/08 10:19:11;;;;;;;;;24.50;22.00;;;;;10.98;63.65;102147.34;5017289;28;46106;-86
2021/11/08 10:21:43;;;;;;;;;19.00;16.50;;;;;11.03;63.32;102134.69;5017377;28;45532;-88
2021/11/08 10:24:13;;;;;;;;;27.25;23.75;;;;;11.17;63.36;102148.53;5017690;28;45421;-87
2021/11/08 10:26:38;;;;;;;;;28.00;19.00;;;;;11.26;62.93;102145.63;5017914;28;45553;-87
2021/11/08 10:29:17;;;;;;;;;25.00;24.25;;;;;11.35;62.50;102154.00;5000107;28;46729;-87
2021/11/08 10:31:49;;;;;;;;;26.50;24.25;;;;;11.38;62.26;102145.50;5018878;28;45320;-88
2021/11/08 10:34:16;;;;;;;;;24.00;20.00;;;;;11.40;62.21;102141.31;5001974;28;45389;-88
2021/11/08 10:36:43;;;;;;;;;27.75;22.00;;;;;11.42;61.95;102135.41;5000999;28;45506;-89
2021/11/08 10:39:10;;;;;;;;;21.75;19.50;;;;;11.40;61.84;102137.00;5000065;28;46999;-90
2021/11/08 10:41:40;;;;;;;;;23.00;21.00;;;;;11.43;61.77;102150.19;5018620;28;45442;-89
2021/11/08 10:44:08;;;;;;;;;23.25;18.75;;;;;11.46;61.82;102147.78;5019275;28;45309;-87
2021/11/08 10:46:38;;;;;;;;;26.75;23.00;;;;;11.46;61.62;102145.19;5024207;28;45449;-87
2021/11/08 10:49:17;;;;;;;;;23.50;19.75;;;;;11.37;61.53;102128.16;5023519;28;46154;-87
2021/11/08 10:51:46;;;;;;;;;21.75;19.75;;;;;11.43;61.47;102138.94;5005339;28;45430;-88
2021/11/08 10:54:21;;;;;;;;;24.00;22.50;;;;;11.46;61.20;102141.69;5005629;28;45562;-88
2021/11/08 10:56:53;;;;;;;;;31.25;23.50;;;;;11.42;61.34;102132.81;5012336;28;45440;-90
2021/11/08 10:59:21;;;;;;;;;25.25;22.00;;;;;11.44;61.37;102135.53;5013683;28;47039;-88
2021/11/08 11:01:53;;;;;;;;;19.75;17.50;;;;;11.49;61.23;102141.00;5002544;28;45874;-88
2021/11/08 11:04:33;;;;;;;;;22.75;21.75;;;;;11.50;60.71;102135.91;5002602;28;45361;-89
2021/11/08 11:07:01;;;;;;;;;18.75;17.75;;;;;11.49;60.76;102128.91;5001351;28;45522;-89
2021/11/08 11:09:32;;;;;;;;;20.75;18.25;;;;;11.52;60.86;102134.31;5019008;28;45377;-89
2021/11/08 11:12:14;;;;;;;;;18.00;17.50;;;;;11.53;60.53;102135.19;5000521;28;45965;-89
2021/11/08 11:14:51;;;;;;;;;20.25;15.75;;;;;11.57;60.15;102144.97;5004459;28;45432;-89
2021/11/08 11:17:29;;;;;;;;;17.25;14.75;;;;;11.59;59.82;102145.97;5010921;28;45296;-87
2021/11/08 11:20:25;;;;;;;;;21.00;16.00;;;;;11.60;59.35;102135.66;5013721;28;46772;-87
2021/11/08 11:25:53;;;;;;;;;16.75;15.00;;;;;11.68;59.31;102122.28;5017308;28;45516;-87
2021/11/08 11:28:31;;;;;;;;;16.00;12.25;;;;;11.76;59.58;102126.25;5022372;28;45412;-87
2021/11/08 11:30:57;;;;;;;;;14.50;13.50;;;;;11.80;59.46;102135.13;5004234;28;47025;-90
2021/11/08 11:33:29;;;;;;;;;15.00;12.00;;;;;11.83;58.70;102131.00;5007007;28;44758;-90
2021/11/08 11:36:06;;;;;;;;;10.25;9.75;;;;;11.86;58.28;102126.00;5006731;28;44748;-90
2021/11/08 11:39:06;;;;;;;;;14.50;8.00;;;;;11.86;57.83;102117.31;5007748;28;45270;-88
2021/11/08 11:41:35;;;;;;;;;8.00;7.00;;;;;11.88;57.50;102113.13;4994654;28;46853;-90
2021/11/08 11:44:07;;;;;;;;;11.75;8.00;;;;;11.93;57.21;102106.50;5002903;28;45683;-88
2021/11/08 11:46:42;;;;;;;;;9.25;8.00;;;;;11.96;57.15;102105.78;5005389;28;45329;-88
2021/11/08 11:49:09;;;;;;;;;14.75;11.75;;;;;11.93;56.82;102094.41;5007669;28;45601;-86
2021/11/08 11:51:42;;;;;;;;;14.25;10.25;;;;;11.95;56.84;102089.31;5001374;28;46926;-89
2021/11/08 11:54:09;;;;;;;;;8.00;6.50;;;;;12.06;56.40;102100.38;5021236;28;45305;-89
2021/11/08 11:56:38;;;;;;;;;7.75;5.25;;;;;12.08;56.05;102096.19;5001726;28;45387;-89
2021/11/08 11:59:05;;;;;;;;;6.75;5.00;;;;;12.10;56.07;102097.16;5000037;28;45289;-90
2021/11/08 12:01:34;;;;;;;;;11.00;8.00;;;;;12.10;55.82;102086.75;5000670;28;47334;-89
2021/11/08 12:03:59;;;;;;;;;8.25;6.00;;;;;12.11;55.64;102087.66;5002261;28;45447;-89
2021/11/08 12:06:31;;;;;;;;;8.00;6.00;;;;;12.20;55.65;102094.28;5002320;28;45435;-88
2021/11/08 12:08:59;;;;;;;;;8.25;5.25;;;;;12.25;54.70;102080.69;5022102;28;45298;-90
2021/11/08 12:11:28;;;;;;;;;5.00;5.00;;;;;12.33;54.00;102082.03;5001955;28;47528;-88
2021/11/08 12:13:58;;;;;;;;;6.00;6.00;;;;;12.35;54.22;102072.63;5001446;28;45592;-89
2021/11/08 12:16:28;;;;;;;;;8.00;5.00;;;;;12.47;53.86;102075.06;5001571;28;45325;-88
2021/11/08 12:18:57;;;;;;;;;5.75;5.00;;;;;12.65;53.38;102075.19;5005719;28;45330;-89
2021/11/08 12:21:31;;;;;;;;;6.75;4.00;;;;;12.80;53.52;102065.66;5006762;28;47700;-89
2021/11/08 12:23:58;;;;;;;;;4.50;4.00;;;;;13.04;53.07;102073.03;5006946;28;45211;-86
2021/11/08 12:26:31;;;;;;;;;5.25;5.25;;;;;13.14;52.75;102053.63;5002194;28;45527;-87
2021/11/08 12:29:09;;;;;;;;;7.75;4.00;;;;;13.29;52.49;102059.66;5022836;28;45472;-87
2021/11/08 12:31:36;;;;;;;;;12.75;8.00;;;;;13.45;52.75;102063.09;5021027;28;45744;-88
2021/11/08 12:34:13;;;;;;;;;11.75;7.00;;;;;13.59;52.02;102056.03;5006859;28;45713;-88
2021/11/08 12:36:41;;;;;;;;;9.50;7.00;;;;;13.78;51.51;102061.38;5022217;28;45310;-87
2021/11/08 12:39:12;;;;;;;;;5.50;4.75;;;;;13.88;52.00;102041.91;5022405;28;45313;-88
2021/11/08 12:41:49;;;;;;;;;8.50;8.00;;;;;14.12;51.33;102051.78;5021427;28;45374;-87
2021/11/08 12:44:18;;;;;;;;;10.00;8.00;;;;;14.26;50.72;102049.84;5003893;28;45513;-87
2021/11/08 12:46:50;;;;;;;;;8.50;6.50;;;;;14.38;50.42;102036.56;5021129;28;45313;-88
2021/11/08 12:49:17;;;;;;;;;7.75;6.25;;;;;14.55;50.93;102040.88;5004844;28;45593;-88
2021/11/08 12:51:53;;;;;;;;;6.75;6.25;;;;;14.63;50.50;102027.34;5004153;28;47728;-88
2021/11/08 12:54:19;;;;;;;;;9.00;5.50;;;;;14.66;49.68;102015.34;5021259;28;45301;-87
2021/11/08 12:56:46;;;;;;;;;9.25;6.75;;;;;14.81;49.57;102032.53;5025136;28;45355;-88
2021/11/08 12:59:30;;;;;;;;;7.25;4.50;;;;;14.72;48.75;102033.00;5021727;28;45579;-85
2021/11/08 13:02:08;;;;;;;;;6.00;5.50;;;;;14.64;48.73;102039.50;5001956;28;46853;-89
2021/11/08 13:04:47;;;;;;;;;6.50;3.00;;;;;14.49;49.14;102030.16;5003032;28;45567;-87